sensor_id;sensor_type;location;lat;lon;timestamp;P1;durP1;ratioP1;P2;durP2;ratioP2
68995;SDS011;56056;48.990;12.146;2022-10-16T00:00:29;5.22;;;4.25;;
68995;SDS011;56056;48.990;12.146;2022-10-16T00:02:54;4.78;;;4.35;;
68995;SDS011;56056;48.990;12.146;2022-10-16T00:05:20;7.38;;;4.72;;
68995;SDS011;56056;48.990;12.146;2022-10-16T00:07:46;4.60;;;4.20;;
68995;SDS011;56056;48.990;12.146;2022-10-16T00:10:11;6.97;;;4.20;;
68995;SDS011;56056;48.990;12.146;2022-10-16T00:12:37;8.73;;;4.38;;
68995;SDS011;56056;48.990;12.146;2022-10-16T00:15:03;4.63;;;4.15;;
68995;SDS011;56056;48.990;12.146;2022-10-16T00:17:32;7.65;;;5.03;;
68995;SDS011;56056;48.990;12.146;2022-10-16T00:19:57;5.80;;;5.30;;
68995;SDS011;56056;48.990;12.146;2022-10-16T00:22:23;5.45;;;4.95;;
68995;SDS011;56056;48.990;12.146;2022-10-16T00:24:49;6.25;;;4.68;;
68995;SDS011;56056;48.990;12.146;2022-10-16T00:27:15;5.03;;;4.57;;
68995;SDS011;56056;48.990;12.146;2022-10-16T00:29:41;5.85;;;4.82;;
68995;SDS011;56056;48.990;12.146;2022-10-16T00:32:07;4.90;;;4.45;;
68995;SDS011;56056;48.990;12.146;2022-10-16T00:34:34;5.05;;;3.90;;
68995;SDS011;56056;48.990;12.146;2022-10-16T00:37:00;4.32;;;4.00;;
68995;SDS011;56056;48.990;12.146;2022-10-16T00:39:25;4.45;;;4.05;;
68995;SDS011;56056;48.990;12.146;2022-10-16T00:41:51;4.88;;;4.47;;
68995;SDS011;56056;48.990;12.146;2022-10-16T00:47:19;4.30;;;3.83;;
68995;SDS011;56056;48.990;12.146;2022-10-16T00:49:48;5.28;;;4.57;;
68995;SDS011;56056;48.990;12.146;2022-10-16T00:52:16;4.53;;;4.13;;
68995;SDS011;56056;48.990;12.146;2022-10-16T00:54:43;5.38;;;3.90;;
68995;SDS011;56056;48.990;12.146;2022-10-16T00:57:09;4.10;;;3.80;;
68995;SDS011;56056;48.990;12.146;2022-10-16T00:59:36;7.15;;;4.03;;
68995;SDS011;56056;48.990;12.146;2022-10-16T01:02:04;4.38;;;3.72;;
68995;SDS011;56056;48.990;12.146;2022-10-16T01:04:31;5.97;;;3.92;;
68995;SDS011;56056;48.990;12.146;2022-10-16T01:07:02;3.92;;;3.63;;
68995;SDS011;56056;48.990;12.146;2022-10-16T01:09:34;5.03;;;3.65;;
68995;SDS011;56056;48.990;12.146;2022-10-16T01:12:05;7.28;;;4.13;;
68995;SDS011;56056;48.990;12.146;2022-10-16T01:14:36;4.97;;;4.00;;
68995;SDS011;56056;48.990;12.146;2022-10-16T01:17:06;4.10;;;3.70;;
68995;SDS011;56056;48.990;12.146;2022-10-16T01:19:39;6.57;;;4.05;;
68995;SDS011;56056;48.990;12.146;2022-10-16T01:22:24;4.30;;;3.97;;
68995;SDS011;56056;48.990;12.146;2022-10-16T01:24:51;4.40;;;4.00;;
68995;SDS011;56056;48.990;12.146;2022-10-16T01:27:21;4.97;;;3.47;;
68995;SDS011;56056;48.990;12.146;2022-10-16T01:29:52;9.85;;;3.85;;
68995;SDS011;56056;48.990;12.146;2022-10-16T01:32:22;3.90;;;3.50;;
68995;SDS011;56056;48.990;12.146;2022-10-16T01:34:52;4.20;;;3.90;;
68995;SDS011;56056;48.990;12.146;2022-10-16T01:37:28;3.65;;;3.35;;
68995;SDS011;56056;48.990;12.146;2022-10-16T01:39:58;3.45;;;3.20;;
68995;SDS011;56056;48.990;12.146;2022-10-16T01:42:28;3.80;;;3.58;;
68995;SDS011;56056;48.990;12.146;2022-10-16T01:44:56;5.78;;;3.58;;
68995;SDS011;56056;48.990;12.146;2022-10-16T01:47:24;5.03;;;3.92;;
68995;SDS011;56056;48.990;12.146;2022-10-16T01:49:51;9.20;;;3.78;;
68995;SDS011;56056;48.990;12.146;2022-10-16T01:52:19;3.85;;;3.55;;
68995;SDS011;56056;48.990;12.146;2022-10-16T01:54:47;5.90;;;4.15;;
68995;SDS011;56056;48.990;12.146;2022-10-16T01:57:13;4.30;;;3.88;;
68995;SDS011;56056;48.990;12.146;2022-10-16T01:59:42;3.70;;;3.50;;
68995;SDS011;56056;48.990;12.146;2022-10-16T02:02:09;5.75;;;3.38;;
68995;SDS011;56056;48.990;12.146;2022-10-16T02:04:37;3.65;;;3.35;;
68995;SDS011;56056;48.990;12.146;2022-10-16T02:07:04;3.70;;;3.40;;
68995;SDS011;56056;48.990;12.146;2022-10-16T02:09:32;6.80;;;3.40;;
68995;SDS011;56056;48.990;12.146;2022-10-16T02:11:59;3.90;;;3.60;;
68995;SDS011;56056;48.990;12.146;2022-10-16T02:14:27;3.85;;;3.55;;
68995;SDS011;56056;48.990;12.146;2022-10-16T02:16:54;7.38;;;3.42;;
68995;SDS011;56056;48.990;12.146;2022-10-16T02:19:20;4.07;;;3.50;;
68995;SDS011;56056;48.990;12.146;2022-10-16T02:21:48;3.28;;;3.08;;
68995;SDS011;56056;48.990;12.146;2022-10-16T02:24:17;5.75;;;3.58;;
68995;SDS011;56056;48.990;12.146;2022-10-16T02:26:51;5.88;;;3.65;;
68995;SDS011;56056;48.990;12.146;2022-10-16T02:29:20;5.05;;;3.50;;
68995;SDS011;56056;48.990;12.146;2022-10-16T02:31:49;4.53;;;4.13;;
68995;SDS011;56056;48.990;12.146;2022-10-16T02:34:26;3.72;;;3.45;;
68995;SDS011;56056;48.990;12.146;2022-10-16T02:36:53;5.45;;;3.30;;
68995;SDS011;56056;48.990;12.146;2022-10-16T02:39:20;4.35;;;3.95;;
68995;SDS011;56056;48.990;12.146;2022-10-16T02:41:45;6.50;;;4.68;;
68995;SDS011;56056;48.990;12.146;2022-10-16T02:44:11;4.28;;;3.90;;
68995;SDS011;56056;48.990;12.146;2022-10-16T02:46:37;4.63;;;4.10;;
68995;SDS011;56056;48.990;12.146;2022-10-16T02:49:02;9.18;;;4.25;;
68995;SDS011;56056;48.990;12.146;2022-10-16T02:51:29;8.68;;;3.88;;
68995;SDS011;56056;48.990;12.146;2022-10-16T02:53:55;8.05;;;3.80;;
68995;SDS011;56056;48.990;12.146;2022-10-16T02:56:21;4.30;;;3.63;;
68995;SDS011;56056;48.990;12.146;2022-10-16T02:58:46;6.93;;;4.30;;
68995;SDS011;56056;48.990;12.146;2022-10-16T03:01:12;4.10;;;3.80;;
68995;SDS011;56056;48.990;12.146;2022-10-16T03:03:39;4.10;;;3.72;;
68995;SDS011;56056;48.990;12.146;2022-10-16T03:06:05;5.80;;;3.72;;
68995;SDS011;56056;48.990;12.146;2022-10-16T03:08:32;4.85;;;3.53;;
68995;SDS011;56056;48.990;12.146;2022-10-16T03:10:58;4.05;;;3.60;;
68995;SDS011;56056;48.990;12.146;2022-10-16T03:13:23;8.13;;;3.60;;
68995;SDS011;56056;48.990;12.146;2022-10-16T03:15:49;8.45;;;4.38;;
68995;SDS011;56056;48.990;12.146;2022-10-16T03:18:15;4.38;;;3.97;;
68995;SDS011;56056;48.990;12.146;2022-10-16T03:20:40;14.90;;;4.95;;
68995;SDS011;56056;48.990;12.146;2022-10-16T03:23:07;6.38;;;3.78;;
68995;SDS011;56056;48.990;12.146;2022-10-16T03:25:34;4.22;;;3.88;;
68995;SDS011;56056;48.990;12.146;2022-10-16T03:28:00;5.28;;;4.15;;
68995;SDS011;56056;48.990;12.146;2022-10-16T03:30:26;4.30;;;3.90;;
68995;SDS011;56056;48.990;12.146;2022-10-16T03:32:51;6.10;;;3.38;;
68995;SDS011;56056;48.990;12.146;2022-10-16T03:35:19;4.25;;;3.80;;
68995;SDS011;56056;48.990;12.146;2022-10-16T03:37:44;4.68;;;4.28;;
68995;SDS011;56056;48.990;12.146;2022-10-16T03:40:10;4.68;;;3.95;;
68995;SDS011;56056;48.990;12.146;2022-10-16T03:42:37;4.93;;;4.00;;
68995;SDS011;56056;48.990;12.146;2022-10-16T03:45:03;6.22;;;3.78;;
68995;SDS011;56056;48.990;12.146;2022-10-16T03:47:29;3.88;;;3.58;;
68995;SDS011;56056;48.990;12.146;2022-10-16T03:49:57;6.88;;;4.15;;
68995;SDS011;56056;48.990;12.146;2022-10-16T03:52:23;6.68;;;3.63;;
68995;SDS011;56056;48.990;12.146;2022-10-16T03:54:49;5.05;;;3.75;;
68995;SDS011;56056;48.990;12.146;2022-10-16T03:57:14;3.80;;;3.50;;
68995;SDS011;56056;48.990;12.146;2022-10-16T03:59:41;3.75;;;3.40;;
68995;SDS011;56056;48.990;12.146;2022-10-16T04:02:07;3.60;;;3.28;;
68995;SDS011;56056;48.990;12.146;2022-10-16T04:04:33;4.85;;;3.45;;
68995;SDS011;56056;48.990;12.146;2022-10-16T04:06:59;7.15;;;3.58;;
68995;SDS011;56056;48.990;12.146;2022-10-16T04:09:24;7.30;;;3.45;;
68995;SDS011;56056;48.990;12.146;2022-10-16T04:11:50;3.95;;;3.75;;
68995;SDS011;56056;48.990;12.146;2022-10-16T04:14:16;5.30;;;3.25;;
68995;SDS011;56056;48.990;12.146;2022-10-16T04:16:43;5.00;;;3.72;;
68995;SDS011;56056;48.990;12.146;2022-10-16T04:19:09;4.22;;;3.58;;
68995;SDS011;56056;48.990;12.146;2022-10-16T04:21:34;4.93;;;3.45;;
68995;SDS011;56056;48.990;12.146;2022-10-16T04:24:00;3.47;;;3.15;;
68995;SDS011;56056;48.990;12.146;2022-10-16T04:26:26;7.85;;;3.65;;
68995;SDS011;56056;48.990;12.146;2022-10-16T04:28:52;5.15;;;3.38;;
68995;SDS011;56056;48.990;12.146;2022-10-16T04:31:18;4.93;;;3.95;;
68995;SDS011;56056;48.990;12.146;2022-10-16T04:33:45;4.72;;;4.25;;
68995;SDS011;56056;48.990;12.146;2022-10-16T04:36:10;6.20;;;4.20;;
68995;SDS011;56056;48.990;12.146;2022-10-16T04:38:36;4.47;;;3.67;;
68995;SDS011;56056;48.990;12.146;2022-10-16T04:41:02;4.82;;;4.20;;
68995;SDS011;56056;48.990;12.146;2022-10-16T04:43:28;6.10;;;4.05;;
68995;SDS011;56056;48.990;12.146;2022-10-16T04:45:53;4.43;;;4.05;;
68995;SDS011;56056;48.990;12.146;2022-10-16T04:48:19;5.18;;;4.10;;
68995;SDS011;56056;48.990;12.146;2022-10-16T04:50:46;3.83;;;3.45;;
68995;SDS011;56056;48.990;12.146;2022-10-16T04:53:12;8.55;;;3.80;;
68995;SDS011;56056;48.990;12.146;2022-10-16T04:55:38;4.35;;;3.90;;
68995;SDS011;56056;48.990;12.146;2022-10-16T04:58:04;4.60;;;4.03;;
68995;SDS011;56056;48.990;12.146;2022-10-16T05:00:30;4.40;;;4.00;;
68995;SDS011;56056;48.990;12.146;2022-10-16T05:02:55;5.85;;;4.15;;
68995;SDS011;56056;48.990;12.146;2022-10-16T05:05:22;4.70;;;4.05;;
68995;SDS011;56056;48.990;12.146;2022-10-16T05:07:49;4.30;;;3.90;;
68995;SDS011;56056;48.990;12.146;2022-10-16T05:10:15;4.15;;;3.30;;
68995;SDS011;56056;48.990;12.146;2022-10-16T05:12:40;3.92;;;3.67;;
68995;SDS011;56056;48.990;12.146;2022-10-16T05:15:07;4.32;;;3.95;;
68995;SDS011;56056;48.990;12.146;2022-10-16T05:17:33;7.85;;;3.58;;
68995;SDS011;56056;48.990;12.146;2022-10-16T05:19:59;3.95;;;3.45;;
68995;SDS011;56056;48.990;12.146;2022-10-16T05:22:24;3.88;;;3.58;;
68995;SDS011;56056;48.990;12.146;2022-10-16T05:24:51;5.38;;;3.92;;
68995;SDS011;56056;48.990;12.146;2022-10-16T05:27:17;3.15;;;2.95;;
68995;SDS011;56056;48.990;12.146;2022-10-16T05:29:45;4.60;;;3.85;;
68995;SDS011;56056;48.990;12.146;2022-10-16T05:32:11;4.50;;;4.20;;
68995;SDS011;56056;48.990;12.146;2022-10-16T05:34:37;7.25;;;4.32;;
68995;SDS011;56056;48.990;12.146;2022-10-16T05:37:03;5.40;;;3.72;;
68995;SDS011;56056;48.990;12.146;2022-10-16T05:39:28;7.40;;;4.05;;
68995;SDS011;56056;48.990;12.146;2022-10-16T05:41:55;8.68;;;4.07;;
68995;SDS011;56056;48.990;12.146;2022-10-16T05:44:21;4.13;;;3.72;;
68995;SDS011;56056;48.990;12.146;2022-10-16T05:46:47;6.10;;;3.80;;
68995;SDS011;56056;48.990;12.146;2022-10-16T05:49:12;5.57;;;4.20;;
68995;SDS011;56056;48.990;12.146;2022-10-16T05:51:38;3.92;;;3.63;;
68995;SDS011;56056;48.990;12.146;2022-10-16T05:54:04;5.10;;;4.32;;
68995;SDS011;56056;48.990;12.146;2022-10-16T05:56:30;3.85;;;3.65;;
68995;SDS011;56056;48.990;12.146;2022-10-16T05:58:57;5.68;;;4.70;;
68995;SDS011;56056;48.990;12.146;2022-10-16T06:01:22;4.63;;;4.22;;
68995;SDS011;56056;48.990;12.146;2022-10-16T06:03:49;4.97;;;4.28;;
68995;SDS011;56056;48.990;12.146;2022-10-16T06:06:16;5.25;;;4.65;;
68995;SDS011;56056;48.990;12.146;2022-10-16T06:08:43;4.35;;;3.95;;
68995;SDS011;56056;48.990;12.146;2022-10-16T06:11:13;3.78;;;3.47;;
68995;SDS011;56056;48.990;12.146;2022-10-16T06:13:41;4.35;;;3.75;;
68995;SDS011;56056;48.990;12.146;2022-10-16T06:16:09;4.60;;;3.70;;
68995;SDS011;56056;48.990;12.146;2022-10-16T06:18:35;5.30;;;4.28;;
68995;SDS011;56056;48.990;12.146;2022-10-16T06:21:06;4.07;;;3.78;;
68995;SDS011;56056;48.990;12.146;2022-10-16T06:23:33;6.38;;;4.25;;
68995;SDS011;56056;48.990;12.146;2022-10-16T06:26:03;4.07;;;3.75;;
68995;SDS011;56056;48.990;12.146;2022-10-16T06:28:30;4.68;;;4.30;;
68995;SDS011;56056;48.990;12.146;2022-10-16T06:30:58;4.88;;;3.65;;
68995;SDS011;56056;48.990;12.146;2022-10-16T06:33:25;4.57;;;3.72;;
68995;SDS011;56056;48.990;12.146;2022-10-16T06:35:51;9.48;;;4.40;;
68995;SDS011;56056;48.990;12.146;2022-10-16T06:38:17;12.25;;;3.60;;
68995;SDS011;56056;48.990;12.146;2022-10-16T06:40:42;4.65;;;4.18;;
68995;SDS011;56056;48.990;12.146;2022-10-16T06:43:08;6.20;;;3.65;;
68995;SDS011;56056;48.990;12.146;2022-10-16T06:45:34;3.58;;;3.35;;
68995;SDS011;56056;48.990;12.146;2022-10-16T06:48:00;5.43;;;3.10;;
68995;SDS011;56056;48.990;12.146;2022-10-16T06:50:27;4.35;;;3.40;;
68995;SDS011;56056;48.990;12.146;2022-10-16T06:52:52;5.15;;;3.17;;
68995;SDS011;56056;48.990;12.146;2022-10-16T06:55:18;4.35;;;3.50;;
68995;SDS011;56056;48.990;12.146;2022-10-16T06:57:43;6.82;;;3.55;;
68995;SDS011;56056;48.990;12.146;2022-10-16T07:00:12;3.40;;;3.10;;
68995;SDS011;56056;48.990;12.146;2022-10-16T07:02:38;4.10;;;3.70;;
68995;SDS011;56056;48.990;12.146;2022-10-16T07:05:04;3.92;;;3.60;;
68995;SDS011;56056;48.990;12.146;2022-10-16T07:07:31;3.88;;;3.55;;
68995;SDS011;56056;48.990;12.146;2022-10-16T07:09:57;4.50;;;3.78;;
68995;SDS011;56056;48.990;12.146;2022-10-16T07:12:22;3.38;;;2.65;;
68995;SDS011;56056;48.990;12.146;2022-10-16T07:14:48;3.67;;;3.38;;
68995;SDS011;56056;48.990;12.146;2022-10-16T07:17:15;4.82;;;3.70;;
68995;SDS011;56056;48.990;12.146;2022-10-16T07:19:41;4.18;;;3.28;;
68995;SDS011;56056;48.990;12.146;2022-10-16T07:22:07;3.50;;;3.08;;
68995;SDS011;56056;48.990;12.146;2022-10-16T07:24:34;3.10;;;2.90;;
68995;SDS011;56056;48.990;12.146;2022-10-16T07:26:59;3.17;;;2.88;;
68995;SDS011;56056;48.990;12.146;2022-10-16T07:29:25;3.42;;;3.15;;
68995;SDS011;56056;48.990;12.146;2022-10-16T07:31:51;3.15;;;2.95;;
68995;SDS011;56056;48.990;12.146;2022-10-16T07:34:17;3.40;;;3.20;;
68995;SDS011;56056;48.990;12.146;2022-10-16T07:36:44;4.90;;;2.58;;
68995;SDS011;56056;48.990;12.146;2022-10-16T07:39:12;2.70;;;2.50;;
68995;SDS011;56056;48.990;12.146;2022-10-16T07:41:39;4.03;;;2.63;;
68995;SDS011;56056;48.990;12.146;2022-10-16T07:44:04;2.80;;;2.60;;
68995;SDS011;56056;48.990;12.146;2022-10-16T07:46:31;3.88;;;2.38;;
68995;SDS011;56056;48.990;12.146;2022-10-16T07:48:58;2.58;;;2.30;;
68995;SDS011;56056;48.990;12.146;2022-10-16T07:51:24;4.95;;;2.38;;
68995;SDS011;56056;48.990;12.146;2022-10-16T07:53:51;2.95;;;2.75;;
68995;SDS011;56056;48.990;12.146;2022-10-16T07:56:17;3.50;;;2.20;;
68995;SDS011;56056;48.990;12.146;2022-10-16T07:58:45;2.50;;;2.33;;
68995;SDS011;56056;48.990;12.146;2022-10-16T08:01:11;2.28;;;2.08;;
68995;SDS011;56056;48.990;12.146;2022-10-16T08:03:38;3.97;;;2.33;;
68995;SDS011;56056;48.990;12.146;2022-10-16T08:06:06;2.75;;;2.35;;
68995;SDS011;56056;48.990;12.146;2022-10-16T08:08:32;3.25;;;2.40;;
68995;SDS011;56056;48.990;12.146;2022-10-16T08:10:57;2.70;;;2.53;;
68995;SDS011;56056;48.990;12.146;2022-10-16T08:13:23;2.45;;;2.20;;
68995;SDS011;56056;48.990;12.146;2022-10-16T08:15:50;2.75;;;2.55;;
68995;SDS011;56056;48.990;12.146;2022-10-16T08:18:16;2.30;;;2.08;;
68995;SDS011;56056;48.990;12.146;2022-10-16T08:20:42;2.42;;;2.33;;
68995;SDS011;56056;48.990;12.146;2022-10-16T08:23:08;2.33;;;2.10;;
68995;SDS011;56056;48.990;12.146;2022-10-16T08:25:35;4.28;;;3.83;;
68995;SDS011;56056;48.990;12.146;2022-10-16T08:28:02;2.80;;;2.35;;
68995;SDS011;56056;48.990;12.146;2022-10-16T08:30:28;2.42;;;2.22;;
68995;SDS011;56056;48.990;12.146;2022-10-16T08:32:55;2.10;;;1.90;;
68995;SDS011;56056;48.990;12.146;2022-10-16T08:35:21;4.75;;;2.35;;
68995;SDS011;56056;48.990;12.146;2022-10-16T08:37:47;2.63;;;2.50;;
68995;SDS011;56056;48.990;12.146;2022-10-16T08:40:15;2.40;;;2.30;;
68995;SDS011;56056;48.990;12.146;2022-10-16T08:42:46;2.60;;;2.40;;
68995;SDS011;56056;48.990;12.146;2022-10-16T08:45:34;4.40;;;2.53;;
68995;SDS011;56056;48.990;12.146;2022-10-16T08:48:11;2.63;;;2.45;;
68995;SDS011;56056;48.990;12.146;2022-10-16T08:50:43;3.15;;;2.70;;
68995;SDS011;56056;48.990;12.146;2022-10-16T08:53:10;2.83;;;2.63;;
68995;SDS011;56056;48.990;12.146;2022-10-16T08:55:41;5.95;;;2.30;;
68995;SDS011;56056;48.990;12.146;2022-10-16T08:58:10;2.60;;;2.40;;
68995;SDS011;56056;48.990;12.146;2022-10-16T09:00:38;2.85;;;2.72;;
68995;SDS011;56056;48.990;12.146;2022-10-16T09:03:05;2.30;;;2.20;;
68995;SDS011;56056;48.990;12.146;2022-10-16T09:05:52;2.35;;;2.25;;
68995;SDS011;56056;48.990;12.146;2022-10-16T09:08:25;2.10;;;2.00;;
68995;SDS011;56056;48.990;12.146;2022-10-16T09:10:56;3.00;;;2.80;;
68995;SDS011;56056;48.990;12.146;2022-10-16T09:13:26;2.42;;;2.22;;
68995;SDS011;56056;48.990;12.146;2022-10-16T09:15:55;3.25;;;3.00;;
68995;SDS011;56056;48.990;12.146;2022-10-16T09:18:27;2.63;;;2.42;;
68995;SDS011;56056;48.990;12.146;2022-10-16T09:20:59;3.55;;;2.80;;
68995;SDS011;56056;48.990;12.146;2022-10-16T09:23:29;3.15;;;2.92;;
68995;SDS011;56056;48.990;12.146;2022-10-16T09:25:56;3.10;;;2.80;;
68995;SDS011;56056;48.990;12.146;2022-10-16T09:28:23;2.50;;;2.35;;
68995;SDS011;56056;48.990;12.146;2022-10-16T09:30:49;3.92;;;2.42;;
68995;SDS011;56056;48.990;12.146;2022-10-16T09:33:16;3.00;;;2.78;;
68995;SDS011;56056;48.990;12.146;2022-10-16T09:35:43;2.75;;;2.55;;
68995;SDS011;56056;48.990;12.146;2022-10-16T09:38:23;2.70;;;2.50;;
68995;SDS011;56056;48.990;12.146;2022-10-16T09:40:50;2.33;;;2.20;;
68995;SDS011;56056;48.990;12.146;2022-10-16T09:43:19;7.38;;;2.75;;
68995;SDS011;56056;48.990;12.146;2022-10-16T09:45:54;2.78;;;2.58;;
68995;SDS011;56056;48.990;12.146;2022-10-16T09:48:21;2.28;;;2.15;;
68995;SDS011;56056;48.990;12.146;2022-10-16T09:50:55;2.42;;;2.33;;
68995;SDS011;56056;48.990;12.146;2022-10-16T09:53:22;2.33;;;2.15;;
68995;SDS011;56056;48.990;12.146;2022-10-16T09:55:48;5.47;;;2.28;;
68995;SDS011;56056;48.990;12.146;2022-10-16T09:58:15;2.72;;;2.53;;
68995;SDS011;56056;48.990;12.146;2022-10-16T10:00:40;2.50;;;2.35;;
68995;SDS011;56056;48.990;12.146;2022-10-16T10:03:09;2.55;;;2.45;;
68995;SDS011;56056;48.990;12.146;2022-10-16T10:05:35;2.28;;;2.17;;
68995;SDS011;56056;48.990;12.146;2022-10-16T10:08:01;2.90;;;2.70;;
68995;SDS011;56056;48.990;12.146;2022-10-16T10:10:33;2.53;;;2.33;;
68995;SDS011;56056;48.990;12.146;2022-10-16T10:12:59;2.30;;;2.08;;
68995;SDS011;56056;48.990;12.146;2022-10-16T10:15:32;2.28;;;2.17;;
68995;SDS011;56056;48.990;12.146;2022-10-16T10:17:59;2.40;;;2.08;;
68995;SDS011;56056;48.990;12.146;2022-10-16T10:20:29;2.40;;;2.20;;
68995;SDS011;56056;48.990;12.146;2022-10-16T10:22:57;2.47;;;2.30;;
68995;SDS011;56056;48.990;12.146;2022-10-16T10:25:26;2.60;;;2.40;;
68995;SDS011;56056;48.990;12.146;2022-10-16T10:28:18;1.98;;;1.88;;
68995;SDS011;56056;48.990;12.146;2022-10-16T10:30:52;2.33;;;2.22;;
68995;SDS011;56056;48.990;12.146;2022-10-16T10:33:24;2.60;;;2.40;;
68995;SDS011;56056;48.990;12.146;2022-10-16T10:35:55;3.05;;;2.50;;
68995;SDS011;56056;48.990;12.146;2022-10-16T10:38:27;2.35;;;2.15;;
68995;SDS011;56056;48.990;12.146;2022-10-16T10:40:59;2.85;;;1.83;;
68995;SDS011;56056;48.990;12.146;2022-10-16T10:43:35;2.10;;;2.00;;
68995;SDS011;56056;48.990;12.146;2022-10-16T10:46:08;2.05;;;1.95;;
68995;SDS011;56056;48.990;12.146;2022-10-16T10:48:47;2.13;;;2.03;;
68995;SDS011;56056;48.990;12.146;2022-10-16T10:51:20;2.45;;;2.20;;
68995;SDS011;56056;48.990;12.146;2022-10-16T10:53:52;2.30;;;2.15;;
68995;SDS011;56056;48.990;12.146;2022-10-16T10:56:40;2.00;;;1.90;;
68995;SDS011;56056;48.990;12.146;2022-10-16T10:59:16;2.00;;;1.90;;
68995;SDS011;56056;48.990;12.146;2022-10-16T11:01:54;2.13;;;2.03;;
68995;SDS011;56056;48.990;12.146;2022-10-16T11:07:14;1.95;;;1.85;;
68995;SDS011;56056;48.990;12.146;2022-10-16T11:09:43;2.03;;;1.92;;
68995;SDS011;56056;48.990;12.146;2022-10-16T11:12:14;2.63;;;2.28;;
68995;SDS011;56056;48.990;12.146;2022-10-16T11:14:43;2.85;;;2.30;;
68995;SDS011;56056;48.990;12.146;2022-10-16T11:17:13;2.28;;;2.00;;
68995;SDS011;56056;48.990;12.146;2022-10-16T11:19:43;3.22;;;1.80;;
68995;SDS011;56056;48.990;12.146;2022-10-16T11:22:13;4.80;;;4.35;;
68995;SDS011;56056;48.990;12.146;2022-10-16T11:24:42;2.08;;;1.98;;
68995;SDS011;56056;48.990;12.146;2022-10-16T11:27:15;2.45;;;1.98;;
68995;SDS011;56056;48.990;12.146;2022-10-16T11:29:43;2.13;;;1.90;;
68995;SDS011;56056;48.990;12.146;2022-10-16T11:32:14;1.92;;;1.83;;
68995;SDS011;56056;48.990;12.146;2022-10-16T11:34:44;2.17;;;2.08;;
68995;SDS011;56056;48.990;12.146;2022-10-16T11:37:14;1.88;;;1.77;;
68995;SDS011;56056;48.990;12.146;2022-10-16T11:39:42;5.35;;;2.03;;
68995;SDS011;56056;48.990;12.146;2022-10-16T11:42:10;2.10;;;1.90;;
68995;SDS011;56056;48.990;12.146;2022-10-16T11:44:42;2.05;;;1.95;;
68995;SDS011;56056;48.990;12.146;2022-10-16T11:47:18;1.83;;;1.73;;
68995;SDS011;56056;48.990;12.146;2022-10-16T11:49:49;2.28;;;2.08;;
68995;SDS011;56056;48.990;12.146;2022-10-16T11:52:19;2.80;;;2.60;;
68995;SDS011;56056;48.990;12.146;2022-10-16T11:54:49;5.90;;;1.63;;
68995;SDS011;56056;48.990;12.146;2022-10-16T11:57:19;2.13;;;2.03;;
68995;SDS011;56056;48.990;12.146;2022-10-16T11:59:47;2.20;;;2.10;;
68995;SDS011;56056;48.990;12.146;2022-10-16T12:02:23;1.73;;;1.73;;
68995;SDS011;56056;48.990;12.146;2022-10-16T12:04:56;2.22;;;2.13;;
68995;SDS011;56056;48.990;12.146;2022-10-16T12:07:32;2.13;;;1.92;;
68995;SDS011;56056;48.990;12.146;2022-10-16T12:10:09;1.58;;;1.58;;
68995;SDS011;56056;48.990;12.146;2022-10-16T12:12:39;1.80;;;1.70;;
68995;SDS011;56056;48.990;12.146;2022-10-16T12:15:18;1.83;;;1.73;;
68995;SDS011;56056;48.990;12.146;2022-10-16T12:17:45;1.80;;;1.70;;
68995;SDS011;56056;48.990;12.146;2022-10-16T12:20:24;1.70;;;1.60;;
68995;SDS011;56056;48.990;12.146;2022-10-16T12:22:53;2.97;;;1.83;;
68995;SDS011;56056;48.990;12.146;2022-10-16T12:25:21;2.83;;;1.45;;
68995;SDS011;56056;48.990;12.146;2022-10-16T12:27:57;1.75;;;1.73;;
68995;SDS011;56056;48.990;12.146;2022-10-16T12:30:28;2.10;;;1.50;;
68995;SDS011;56056;48.990;12.146;2022-10-16T12:32:56;1.70;;;1.60;;
68995;SDS011;56056;48.990;12.146;2022-10-16T12:35:24;1.92;;;1.83;;
68995;SDS011;56056;48.990;12.146;2022-10-16T12:37:51;2.58;;;2.05;;
68995;SDS011;56056;48.990;12.146;2022-10-16T12:40:23;2.13;;;2.03;;
68995;SDS011;56056;48.990;12.146;2022-10-16T12:42:51;2.15;;;1.98;;
68995;SDS011;56056;48.990;12.146;2022-10-16T12:45:25;2.47;;;1.90;;
68995;SDS011;56056;48.990;12.146;2022-10-16T12:47:52;3.33;;;1.73;;
68995;SDS011;56056;48.990;12.146;2022-10-16T12:50:26;1.92;;;1.83;;
68995;SDS011;56056;48.990;12.146;2022-10-16T12:52:57;2.00;;;1.90;;
68995;SDS011;56056;48.990;12.146;2022-10-16T12:55:23;1.90;;;1.80;;
68995;SDS011;56056;48.990;12.146;2022-10-16T12:57:58;2.05;;;1.88;;
68995;SDS011;56056;48.990;12.146;2022-10-16T13:00:34;1.90;;;1.80;;
68995;SDS011;56056;48.990;12.146;2022-10-16T13:03:11;2.22;;;1.90;;
68995;SDS011;56056;48.990;12.146;2022-10-16T13:05:53;2.97;;;1.85;;
68995;SDS011;56056;48.990;12.146;2022-10-16T13:08:34;8.93;;;8.00;;
68995;SDS011;56056;48.990;12.146;2022-10-16T13:11:11;2.22;;;2.13;;
68995;SDS011;56056;48.990;12.146;2022-10-16T13:13:50;1.90;;;1.80;;
68995;SDS011;56056;48.990;12.146;2022-10-16T13:16:27;2.25;;;2.03;;
68995;SDS011;56056;48.990;12.146;2022-10-16T13:19:01;3.00;;;2.00;;
68995;SDS011;56056;48.990;12.146;2022-10-16T13:21:38;1.70;;;1.60;;
68995;SDS011;56056;48.990;12.146;2022-10-16T13:24:11;1.50;;;1.50;;
68995;SDS011;56056;48.990;12.146;2022-10-16T13:26:43;1.77;;;1.67;;
68995;SDS011;56056;48.990;12.146;2022-10-16T13:29:13;3.88;;;1.88;;
68995;SDS011;56056;48.990;12.146;2022-10-16T13:31:40;1.90;;;1.80;;
68995;SDS011;56056;48.990;12.146;2022-10-16T13:34:10;2.20;;;2.10;;
68995;SDS011;56056;48.990;12.146;2022-10-16T13:36:42;1.95;;;1.85;;
68995;SDS011;56056;48.990;12.146;2022-10-16T13:39:11;2.25;;;1.95;;
68995;SDS011;56056;48.990;12.146;2022-10-16T13:41:38;1.77;;;1.67;;
68995;SDS011;56056;48.990;12.146;2022-10-16T13:44:04;2.10;;;1.90;;
68995;SDS011;56056;48.990;12.146;2022-10-16T13:46:30;1.67;;;1.63;;
68995;SDS011;56056;48.990;12.146;2022-10-16T13:49:01;1.92;;;1.75;;
68995;SDS011;56056;48.990;12.146;2022-10-16T13:51:28;1.75;;;1.65;;
68995;SDS011;56056;48.990;12.146;2022-10-16T13:53:54;2.25;;;1.80;;
68995;SDS011;56056;48.990;12.146;2022-10-16T13:56:21;2.00;;;1.88;;
68995;SDS011;56056;48.990;12.146;2022-10-16T13:58:57;3.05;;;1.80;;
68995;SDS011;56056;48.990;12.146;2022-10-16T14:01:24;1.67;;;1.58;;
68995;SDS011;56056;48.990;12.146;2022-10-16T14:03:50;1.80;;;1.70;;
68995;SDS011;56056;48.990;12.146;2022-10-16T14:06:18;1.92;;;1.83;;
68995;SDS011;56056;48.990;12.146;2022-10-16T14:08:48;1.95;;;1.85;;
68995;SDS011;56056;48.990;12.146;2022-10-16T14:11:20;1.95;;;1.85;;
68995;SDS011;56056;48.990;12.146;2022-10-16T14:13:48;1.70;;;1.60;;
68995;SDS011;56056;48.990;12.146;2022-10-16T14:16:16;2.03;;;1.92;;
68995;SDS011;56056;48.990;12.146;2022-10-16T14:18:44;1.58;;;1.48;;
68995;SDS011;56056;48.990;12.146;2022-10-16T14:21:12;2.10;;;2.00;;
68995;SDS011;56056;48.990;12.146;2022-10-16T14:23:41;1.88;;;1.77;;
68995;SDS011;56056;48.990;12.146;2022-10-16T14:26:15;1.83;;;1.73;;
68995;SDS011;56056;48.990;12.146;2022-10-16T14:28:42;1.67;;;1.63;;
68995;SDS011;56056;48.990;12.146;2022-10-16T14:31:28;1.90;;;1.80;;
68995;SDS011;56056;48.990;12.146;2022-10-16T14:33:55;2.03;;;1.85;;
68995;SDS011;56056;48.990;12.146;2022-10-16T14:36:21;1.85;;;1.75;;
68995;SDS011;56056;48.990;12.146;2022-10-16T14:38:49;1.83;;;1.73;;
68995;SDS011;56056;48.990;12.146;2022-10-16T14:41:20;2.03;;;1.92;;
68995;SDS011;56056;48.990;12.146;2022-10-16T14:43:49;2.47;;;2.10;;
68995;SDS011;56056;48.990;12.146;2022-10-16T14:46:16;2.20;;;2.10;;